Altamont, NY (12009)

2:15 PM EDT on May 27, 2015 (GMT -0400)
Altamont, NY | | Change Station
CLOSE
Current Station
Personal Weather Station
Location: Altamont, NY
Elevation: 364 ft
Nearby Weather Stations
Active Advisory: Severe Thunderstorm Watch

Elev 364 ft 42.71 °N, 74.02 °W | Updated 44 seconds ago

Partly Cloudy
Partly Cloudy
85.6 °F
Feels Like 91 °F
N
6.7
Wind Variable Wind from SE
Gusts 10.1 mph

Today
High -- | Low -- °F
--% Chance of Precip.
Yesterday
High -- | Low -- °F
Precip. -- in
5:23 AM 8:23 PM
Waxing Gibbous, 69% visible
Pressure 30.02 in
Visibility 10.0 miles
Clouds Few 3500 ft
Scattered Clouds 7500 ft
Scattered Clouds 11000 ft
Mostly Cloudy 26000 ft
Heat Index 91 °F
Dew Point 71 °F
Humidity 61%
Rainfall 0.00 in
Snow Depth Not available.
UV 6 out of 12
Pollen 6.60 out of 12
Air Quality Not available.
Flu Activity Widespread
METAR KALB 271751Z 17012G25KT 10SM FEW035 SCT075 SCT110 BKN260 31/19 A3003 RMK AO2 SLP166 CB DSNT N-NE MOV NE T03060194 10311 20228 57018

More Conditions Fewer Conditions

Pressure 30.02 in
Visibility 10.0 miles
Clouds Few 3500 ft
Scattered Clouds 7500 ft
Scattered Clouds 11000 ft
Mostly Cloudy 26000 ft
Heat Index 91 °F
Dew Point 71 °F
Humidity 61%
Rainfall 0.00 in
Snow Depth Not available.
UV 6 out of 12
Pollen 6.60 out of 12
Air Quality Not available.
Flu Activity Widespread
METAR KALB 271751Z 17012G25KT 10SM FEW035 SCT075 SCT110 BKN260 31/19 A3003 RMK AO2 SLP166 CB DSNT N-NE MOV NE T03060194 10311 20228 57018

More Conditions Fewer Conditions

10-Day Weather Forecast

Almanac

Astronomy

May. 27, 2015 Rise Set
Actual Time
Civil Twilight
Nautical Twilight
Astronomical Twilight
Moon
Length of Visible Light
Length of Day
Tomorrow will be .
, % of the Moon is Illuminated

Today's Extremes

State Highs State Lows

Community

WunderPhotos

Upload Photos

1,824,744 photos uploaded!

WunderBlogs® & News

Nearby

Air Quality

  Air Quality AQ Index Pollutant
Not available.

Snow Depth

Station Depth Elevation

Earthquake Activity

City Distance Mag. Time & Date
Minimum magnitude displayed is 2.5.

Coastal Water Temperatures

Place Temperature

Stations

Nearby Weather Stations

Station Location Temp. Windchill Dew Point Humidity Wind Precip. Elev Updated Type
                   
Severe Thunderstorm Watch
Statement as of 1:59 PM EDT on May 27, 2015

Severe Thunderstorm Watch 227 remains in effect until 700 PM EDT

NY
. New York counties included are

Albany Broome Chenango
Clinton Columbia Delaware
Dutchess Essex Franklin
Fulton Greene Hamilton
Herkimer Madison Montgomery
Oneida Orange Otsego
Putnam Rensselaer Rockland
Saratoga Schenectady Schoharie
Sullivan Ulster Warren
Washington Westchester